Time;durP1;ratioP1;P1;durP2;ratioP2;P2;SDS_P1;SDS_P2;PMS_P1;PMS_P2;Temp;Humidity;BMP_temperature;BMP_pressure;BME280_temperature;BME280_humidity;BME280_pressure;Samples;Min_cycle;Max_cycle;Signal;HPM_P1;HPM_P2
2023/08/10 00:00:14;;;;;;;;;;;;;;;;;;4999614;28;20034;-58
2023/08/10 00:02:40;;;;;;;;;;;;;;;;;;4991775;28;19925;-58
2023/08/10 00:05:06;;;;;;;;;;;;;;;;;;5000767;28;19932;-58
2023/08/10 00:07:33;;;;;;;;;;;;;;;;;;4992882;28;19930;-58
2023/08/10 00:09:58;;;;;;;;;;;;;;;;;;5001893;28;19926;-58
2023/08/10 00:12:24;;;;;;;;;;;;;;;;;;4991147;28;19932;-58
2023/08/10 00:14:50;;;;;;;;;;;;;;;;;;5007428;28;19933;-58
2023/08/10 00:17:16;;;;;;;;;;;;;;;;;;4996180;28;19977;-58
2023/08/10 00:19:42;;;;;;;;;;;;;;;;;;4990409;28;19934;-59
2023/08/10 00:22:08;;;;;;;;;;;;;;;;;;4989248;28;19932;-58
2023/08/10 00:24:34;;;;;;;;;;;;;;;;;;5003616;28;19932;-59
2023/08/10 00:27:00;;;;;;;;;;;;;;;;;;4998163;28;19922;-59
2023/08/10 00:29:26;;;;;;;;;;;;;;;;;;5002453;28;20012;-58
2023/08/10 00:31:52;;;;;;;;;;;;;;;;;;4974606;28;19934;-58
2023/08/10 00:34:18;;;;;;;;;;;;;;;;;;4972248;28;19949;-58
2023/08/10 00:36:44;;;;;;;;;;;;;;;;;;4999929;28;20044;-58
2023/08/10 00:39:10;;;;;;;;;;;;;;;;;;5007918;28;20385;-58
2023/08/10 00:41:36;;;;;;;;;;;;;;;;;;4997049;28;20292;-58
2023/08/10 00:44:02;;;;;;;;;;;;;;;;;;4994339;28;19968;-58
2023/08/10 00:46:29;;;;;;;;;;;;;;;;;;5004583;28;19975;-58
2023/08/10 00:48:55;;;;;;;;;;;;;;;;;;5006421;28;19955;-58
2023/08/10 00:51:21;;;;;;;;;;;;;;;;;;4998225;28;19921;-57
2023/08/10 00:53:47;;;;;;;;;;;;;;;;;;4995445;28;20395;-58
2023/08/10 00:56:13;;;;;;;;;;;;;;;;;;5004144;28;20028;-59
2023/08/10 00:58:39;;;;;;;;;;;;;;;;;;5006880;28;19921;-58
2023/08/10 01:01:04;;;;;;;;;;;;;;;;;;4998088;28;19925;-58
2023/08/10 01:03:30;;;;;;;;;;;;;;;;;;4988571;28;20451;-58
2023/08/10 01:05:57;;;;;;;;;;;;;;;;;;4998600;28;19932;-57
2023/08/10 01:08:23;;;;;;;;;;;;;;;;;;4985090;28;19932;-58
2023/08/10 01:10:49;;;;;;;;;;;;;;;;;;5000732;28;19926;-58
2023/08/10 01:13:15;;;;;;;;;;;;;;;;;;5003494;28;19933;-58
2023/08/10 01:15:41;;;;;;;;;;;;;;;;;;4999761;28;19926;-58
2023/08/10 01:18:06;;;;;;;;;;;;;;;;;;5002594;28;20653;-57
2023/08/10 01:20:32;;;;;;;;;;;;;;;;;;5002965;28;19941;-59
2023/08/10 01:22:59;;;;;;;;;;;;;;;;;;4993139;28;19991;-58
2023/08/10 01:25:28;;;;;;;;;;;;;;;;;;4992509;28;20429;-58
2023/08/10 01:27:54;;;;;;;;;;;;;;;;;;5003034;28;19925;-58
2023/08/10 01:30:20;;;;;;;;;;;;;;;;;;4995803;28;20166;-58
2023/08/10 01:32:46;;;;;;;;;;;;;;;;;;4993628;28;19932;-58
2023/08/10 01:35:12;;;;;;;;;;;;;;;;;;5002119;28;20056;-61
2023/08/10 01:37:38;;;;;;;;;;;;;;;;;;5002400;28;20024;-58
2023/08/10 01:40:07;;;;;;;;;;;;;;;;;;4998410;28;19926;-58
2023/08/10 01:42:33;;;;;;;;;;;;;;;;;;4995886;28;19934;-59
2023/08/10 01:44:59;;;;;;;;;;;;;;;;;;5004689;28;19926;-58
2023/08/10 01:47:25;;;;;;;;;;;;;;;;;;5000053;28;19932;-58
2023/08/10 01:49:51;;;;;;;;;;;;;;;;;;4973036;28;20570;-58
2023/08/10 01:52:17;;;;;;;;;;;;;;;;;;4972613;28;19921;-58
2023/08/10 01:54:43;;;;;;;;;;;;;;;;;;5005650;28;19984;-59
2023/08/10 01:57:09;;;;;;;;;;;;;;;;;;5003813;28;19926;-58
2023/08/10 01:59:34;;;;;;;;;;;;;;;;;;4993274;28;20653;-58
2023/08/10 02:02:00;;;;;;;;;;;;;;;;;;4993204;28;19925;-58
2023/08/10 02:04:26;;;;;;;;;;;;;;;;;;4995759;28;19933;-59
2023/08/10 02:06:53;;;;;;;;;;;;;;;;;;4989790;28;19926;-57
2023/08/10 02:09:19;;;;;;;;;;;;;;;;;;4995620;28;19957;-58
2023/08/10 02:11:45;;;;;;;;;;;;;;;;;;4997039;28;20019;-59
2023/08/10 02:14:10;;;;;;;;;;;;;;;;;;4996388;28;19926;-58
2023/08/10 02:16:36;;;;;;;;;;;;;;;;;;4993037;28;20347;-58
2023/08/10 02:19:02;;;;;;;;;;;;;;;;;;5005188;28;20483;-58
2023/08/10 02:21:28;;;;;;;;;;;;;;;;;;4997132;28;19988;-58
2023/08/10 02:23:54;;;;;;;;;;;;;;;;;;4996109;28;19933;-58
2023/08/10 02:26:20;;;;;;;;;;;;;;;;;;4995615;28;19933;-58
2023/08/10 02:28:46;;;;;;;;;;;;;;;;;;4998351;28;20435;-58
2023/08/10 02:31:12;;;;;;;;;;;;;;;;;;4987768;28;19976;-57
2023/08/10 02:33:38;;;;;;;;;;;;;;;;;;4996351;28;19941;-57
2023/08/10 02:36:04;;;;;;;;;;;;;;;;;;4997365;28;19929;-58
2023/08/10 02:38:30;;;;;;;;;;;;;;;;;;4997533;28;19972;-57
2023/08/10 02:40:56;;;;;;;;;;;;;;;;;;4991557;28;19961;-58
2023/08/10 02:43:22;;;;;;;;;;;;;;;;;;4997286;28;20398;-58
2023/08/10 02:45:48;;;;;;;;;;;;;;;;;;4999213;28;19979;-58
2023/08/10 02:48:14;;;;;;;;;;;;;;;;;;5004929;28;19925;-58
2023/08/10 02:50:40;;;;;;;;;;;;;;;;;;4997563;28;19925;-58
2023/08/10 02:53:06;;;;;;;;;;;;;;;;;;4988907;28;19937;-58
2023/08/10 02:55:32;;;;;;;;;;;;;;;;;;4998758;28;19988;-58
2023/08/10 02:57:58;;;;;;;;;;;;;;;;;;5004145;28;19926;-58
2023/08/10 03:00:24;;;;;;;;;;;;;;;;;;4992688;28;20376;-59
2023/08/10 03:02:50;;;;;;;;;;;;;;;;;;4988999;28;19926;-58
2023/08/10 03:05:18;;;;;;;;;;;;;;;;;;4997849;28;19958;-58
2023/08/10 03:07:44;;;;;;;;;;;;;;;;;;4966531;28;19926;-58
2023/08/10 03:10:11;;;;;;;;;;;;;;;;;;4974312;28;19925;-58
2023/08/10 03:12:37;;;;;;;;;;;;;;;;;;4964684;28;19922;-58
2023/08/10 03:15:04;;;;;;;;;;;;;;;;;;4973711;28;19952;-59
2023/08/10 03:17:30;;;;;;;;;;;;;;;;;;4985057;28;19932;-58
2023/08/10 03:19:56;;;;;;;;;;;;;;;;;;4982739;28;19922;-58
2023/08/10 03:22:25;;;;;;;;;;;;;;;;;;4985034;28;19930;-59
2023/08/10 03:24:52;;;;;;;;;;;;;;;;;;4978449;28;19980;-58
2023/08/10 03:27:17;;;;;;;;;;;;;;;;;;4973917;28;19968;-58
2023/08/10 03:29:43;;;;;;;;;;;;;;;;;;4983610;28;19969;-59
2023/08/10 03:32:09;;;;;;;;;;;;;;;;;;4977491;28;20024;-58
2023/08/10 03:34:35;;;;;;;;;;;;;;;;;;4984411;28;19995;-58
2023/08/10 03:37:01;;;;;;;;;;;;;;;;;;4984740;28;19929;-58
2023/08/10 03:39:27;;;;;;;;;;;;;;;;;;4983975;28;20040;-58
2023/08/10 03:41:53;;;;;;;;;;;;;;;;;;4984407;28;19976;-59
2023/08/10 03:44:19;;;;;;;;;;;;;;;;;;4981449;28;20542;-58
2023/08/10 03:46:45;;;;;;;;;;;;;;;;;;4977480;28;19933;-58
2023/08/10 03:49:11;;;;;;;;;;;;;;;;;;4982376;28;19925;-58
2023/08/10 03:51:37;;;;;;;;;;;;;;;;;;4985032;28;19977;-58
2023/08/10 03:54:03;;;;;;;;;;;;;;;;;;4983697;28;19933;-58
2023/08/10 03:56:28;;;;;;;;;;;;;;;;;;4983488;28;20023;-58
2023/08/10 03:58:54;;;;;;;;;;;;;;;;;;4985049;28;20381;-58
2023/08/10 04:01:22;;;;;;;;;;;;;;;;;;4981198;28;19941;-58
2023/08/10 04:03:48;;;;;;;;;;;;;;;;;;4983058;28;19969;-58
2023/08/10 04:06:14;;;;;;;;;;;;;;;;;;4984744;28;19966;-58
2023/08/10 04:08:40;;;;;;;;;;;;;;;;;;4995692;28;19925;-58
2023/08/10 04:11:06;;;;;;;;;;;;;;;;;;5003482;28;19925;-58
2023/08/10 04:13:32;;;;;;;;;;;;;;;;;;4985297;28;20416;-58
2023/08/10 04:15:57;;;;;;;;;;;;;;;;;;4992718;28;20406;-58
2023/08/10 04:18:23;;;;;;;;;;;;;;;;;;5002361;28;19991;-58
2023/08/10 04:20:49;;;;;;;;;;;;;;;;;;4992600;28;19968;-57
2023/08/10 04:23:15;;;;;;;;;;;;;;;;;;5000802;28;19926;-58
2023/08/10 04:25:41;;;;;;;;;;;;;;;;;;4992709;28;19972;-57
2023/08/10 04:28:07;;;;;;;;;;;;;;;;;;4997662;28;20419;-58
2023/08/10 04:30:33;;;;;;;;;;;;;;;;;;4966284;28;20414;-58
2023/08/10 04:32:59;;;;;;;;;;;;;;;;;;4984358;28;19930;-58
2023/08/10 04:35:26;;;;;;;;;;;;;;;;;;4989409;28;19925;-58
2023/08/10 04:37:53;;;;;;;;;;;;;;;;;;4977952;28;19972;-58
2023/08/10 04:40:19;;;;;;;;;;;;;;;;;;4995948;28;19933;-58
2023/08/10 04:42:45;;;;;;;;;;;;;;;;;;4989332;28;19925;-58
2023/08/10 04:45:11;;;;;;;;;;;;;;;;;;4996445;28;19936;-58
2023/08/10 04:47:37;;;;;;;;;;;;;;;;;;4990369;28;19926;-58
2023/08/10 04:50:03;;;;;;;;;;;;;;;;;;4999262;28;19930;-58
2023/08/10 04:52:29;;;;;;;;;;;;;;;;;;4992140;28;19933;-58
2023/08/10 04:54:54;;;;;;;;;;;;;;;;;;4999930;28;19925;-58
2023/08/10 04:57:20;;;;;;;;;;;;;;;;;;4988023;28;19933;-58
2023/08/10 04:59:46;;;;;;;;;;;;;;;;;;4996607;28;20409;-58
2023/08/10 05:02:13;;;;;;;;;;;;;;;;;;4993991;28;19937;-59
2023/08/10 05:04:39;;;;;;;;;;;;;;;;;;5006009;28;19930;-58
2023/08/10 05:07:04;;;;;;;;;;;;;;;;;;4995351;28;20334;-58
2023/08/10 05:09:30;;;;;;;;;;;;;;;;;;5001417;28;20406;-58
2023/08/10 05:11:56;;;;;;;;;;;;;;;;;;4996490;28;19980;-57
2023/08/10 05:14:22;;;;;;;;;;;;;;;;;;5007281;28;19976;-59
2023/08/10 05:16:48;;;;;;;;;;;;;;;;;;4993358;28;19952;-58
2023/08/10 05:19:14;;;;;;;;;;;;;;;;;;5006901;28;19929;-58
2023/08/10 05:21:40;;;;;;;;;;;;;;;;;;4992259;28;19926;-58
2023/08/10 05:24:06;;;;;;;;;;;;;;;;;;4998281;28;20222;-57
2023/08/10 05:26:32;;;;;;;;;;;;;;;;;;4993084;28;19925;-58
2023/08/10 05:28:58;;;;;;;;;;;;;;;;;;5005874;28;19948;-58
2023/08/10 05:31:24;;;;;;;;;;;;;;;;;;4995611;28;19929;-58
2023/08/10 05:33:50;;;;;;;;;;;;;;;;;;4994493;28;19926;-58
2023/08/10 05:36:16;;;;;;;;;;;;;;;;;;4995619;28;20012;-57
2023/08/10 05:38:42;;;;;;;;;;;;;;;;;;4993828;28;19928;-57
2023/08/10 05:41:08;;;;;;;;;;;;;;;;;;4992169;28;19925;-58
2023/08/10 05:43:33;;;;;;;;;;;;;;;;;;5000078;28;19929;-58
2023/08/10 05:45:59;;;;;;;;;;;;;;;;;;4996015;28;19964;-58
2023/08/10 05:48:25;;;;;;;;;;;;;;;;;;5004301;28;20020;-57
2023/08/10 05:50:51;;;;;;;;;;;;;;;;;;4998282;28;19996;-58
2023/08/10 05:53:17;;;;;;;;;;;;;;;;;;5000692;28;20007;-57
2023/08/10 05:55:43;;;;;;;;;;;;;;;;;;4994974;28;19957;-58
2023/08/10 05:58:09;;;;;;;;;;;;;;;;;;4997827;28;19921;-58
2023/08/10 06:00:39;;;;;;;;;;;;;;;;;;4989655;28;19933;-58
2023/08/10 06:03:05;;;;;;;;;;;;;;;;;;4997719;28;19925;-58
2023/08/10 06:05:31;;;;;;;;;;;;;;;;;;4998411;28;19926;-58
2023/08/10 06:07:57;;;;;;;;;;;;;;;;;;4985294;28;19956;-58
2023/08/10 06:10:23;;;;;;;;;;;;;;;;;;5004294;28;20020;-58
2023/08/10 06:12:49;;;;;;;;;;;;;;;;;;4999502;28;20015;-58
2023/08/10 06:15:15;;;;;;;;;;;;;;;;;;5004757;28;20063;-58
2023/08/10 06:17:43;;;;;;;;;;;;;;;;;;4997130;28;20293;-58
2023/08/10 06:20:16;;;;;;;;;;;;;;;;;;5003258;28;20008;-57
2023/08/10 06:22:42;;;;;;;;;;;;;;;;;;5001700;28;19936;-60
2023/08/10 06:25:09;;;;;;;;;;;;;;;;;;4988694;28;19933;-58
2023/08/10 06:27:35;;;;;;;;;;;;;;;;;;4986635;28;19925;-58
2023/08/10 06:30:01;;;;;;;;;;;;;;;;;;5002389;28;19930;-58
2023/08/10 06:32:27;;;;;;;;;;;;;;;;;;5001453;28;19932;-58
2023/08/10 06:34:54;;;;;;;;;;;;;;;;;;4998948;28;20003;-59
2023/08/10 06:37:20;;;;;;;;;;;;;;;;;;5003715;28;20387;-59
2023/08/10 06:39:49;;;;;;;;;;;;;;;;;;5000041;28;20363;-59
2023/08/10 06:42:17;;;;;;;;;;;;;;;;;;4996569;28;19925;-58
2023/08/10 06:44:43;;;;;;;;;;;;;;;;;;4995563;28;20016;-58
2023/08/10 06:47:10;;;;;;;;;;;;;;;;;;5004061;28;20032;-58
2023/08/10 06:49:36;;;;;;;;;;;;;;;;;;5003923;28;19936;-58
2023/08/10 06:52:03;;;;;;;;;;;;;;;;;;4996303;28;19933;-59
2023/08/10 06:54:29;;;;;;;;;;;;;;;;;;5003665;28;19980;-59
2023/08/10 06:56:55;;;;;;;;;;;;;;;;;;4984457;28;19934;-58
2023/08/10 06:59:21;;;;;;;;;;;;;;;;;;4995898;28;20020;-58
2023/08/10 07:01:47;;;;;;;;;;;;;;;;;;4969707;28;20013;-58
2023/08/10 07:04:13;;;;;;;;;;;;;;;;;;4969863;28;19934;-59
2023/08/10 07:06:39;;;;;;;;;;;;;;;;;;4999105;28;19929;-58
2023/08/10 07:09:08;;;;;;;;;;;;;;;;;;4995104;28;19936;-58
2023/08/10 07:11:34;;;;;;;;;;;;;;;;;;5002414;28;19929;-59
2023/08/10 07:14:01;;;;;;;;;;;;;;;;;;4997920;28;19933;-59
2023/08/10 07:16:27;;;;;;;;;;;;;;;;;;5002785;28;20794;-59
2023/08/10 07:18:52;;;;;;;;;;;;;;;;;;4986214;28;19969;-59
2023/08/10 07:21:20;;;;;;;;;;;;;;;;;;4984142;28;20013;-58
2023/08/10 07:23:46;;;;;;;;;;;;;;;;;;4999647;28;19930;-58
2023/08/10 07:26:12;;;;;;;;;;;;;;;;;;4986940;28;20461;-60
2023/08/10 07:28:38;;;;;;;;;;;;;;;;;;5001627;28;19976;-58
2023/08/10 07:31:04;;;;;;;;;;;;;;;;;;4997725;28;20019;-58
2023/08/10 07:33:30;;;;;;;;;;;;;;;;;;4997077;28;19935;-59
2023/08/10 07:35:56;;;;;;;;;;;;;;;;;;4987829;28;19926;-59
2023/08/10 07:38:22;;;;;;;;;;;;;;;;;;4987370;28;20400;-58
2023/08/10 07:40:48;;;;;;;;;;;;;;;;;;5002978;28;19921;-58
2023/08/10 07:43:14;;;;;;;;;;;;;;;;;;4990494;28;19936;-57
2023/08/10 07:45:40;;;;;;;;;;;;;;;;;;4997167;28;20066;-59
2023/08/10 07:48:06;;;;;;;;;;;;;;;;;;4990106;28;19925;-58
2023/08/10 07:50:32;;;;;;;;;;;;;;;;;;4989571;28;20218;-57
2023/08/10 07:52:58;;;;;;;;;;;;;;;;;;4992661;28;19933;-59
2023/08/10 07:55:24;;;;;;;;;;;;;;;;;;5003888;28;20426;-58
2023/08/10 07:57:50;;;;;;;;;;;;;;;;;;4996855;28;19925;-60
2023/08/10 08:00:16;;;;;;;;;;;;;;;;;;4994480;28;20028;-57
2023/08/10 08:02:42;;;;;;;;;;;;;;;;;;5004287;28;19932;-58
2023/08/10 08:05:08;;;;;;;;;;;;;;;;;;5000454;28;20028;-58
2023/08/10 08:07:34;;;;;;;;;;;;;;;;;;4991426;28;20347;-58
2023/08/10 08:10:00;;;;;;;;;;;;;;;;;;4985203;28;19933;-58
2023/08/10 08:12:26;;;;;;;;;;;;;;;;;;4988062;28;19926;-57
2023/08/10 08:14:52;;;;;;;;;;;;;;;;;;4985752;28;20284;-57
2023/08/10 08:17:18;;;;;;;;;;;;;;;;;;4986964;28;20028;-57
2023/08/10 08:19:44;;;;;;;;;;;;;;;;;;4998716;28;19926;-57
2023/08/10 08:22:10;;;;;;;;;;;;;;;;;;4996727;28;19996;-57
2023/08/10 08:24:35;;;;;;;;;;;;;;;;;;5001145;28;19926;-57
2023/08/10 08:27:01;;;;;;;;;;;;;;;;;;5003087;28;19926;-57
2023/08/10 08:29:27;;;;;;;;;;;;;;;;;;5003555;28;19926;-57
2023/08/10 08:31:53;;;;;;;;;;;;;;;;;;4991158;28;19933;-58
2023/08/10 08:34:19;;;;;;;;;;;;;;;;;;4998066;28;19925;-57
2023/08/10 08:36:45;;;;;;;;;;;;;;;;;;5007230;28;19926;-57
2023/08/10 08:39:11;;;;;;;;;;;;;;;;;;5001545;28;20316;-57
2023/08/10 08:41:37;;;;;;;;;;;;;;;;;;5002797;28;20391;-57
2023/08/10 08:44:04;;;;;;;;;;;;;;;;;;5006891;28;19929;-58
2023/08/10 08:46:30;;;;;;;;;;;;;;;;;;5006616;28;19967;-57
2023/08/10 08:48:56;;;;;;;;;;;;;;;;;;5005393;28;19980;-58
2023/08/10 08:51:21;;;;;;;;;;;;;;;;;;5000513;28;20012;-57
2023/08/10 08:53:47;;;;;;;;;;;;;;;;;;5006622;28;20468;-58
2023/08/10 08:56:14;;;;;;;;;;;;;;;;;;5005682;28;19925;-58
2023/08/10 08:58:40;;;;;;;;;;;;;;;;;;5006040;28;19948;-57
2023/08/10 09:01:06;;;;;;;;;;;;;;;;;;4995462;28;20593;-58
2023/08/10 09:03:32;;;;;;;;;;;;;;;;;;5005700;28;19933;-57
2023/08/10 09:05:57;;;;;;;;;;;;;;;;;;5006076;28;19925;-57
2023/08/10 09:08:23;;;;;;;;;;;;;;;;;;5006754;28;20363;-58
2023/08/10 09:10:49;;;;;;;;;;;;;;;;;;5003221;28;20093;-58
2023/08/10 09:13:16;;;;;;;;;;;;;;;;;;5006340;28;19950;-58
2023/08/10 09:15:42;;;;;;;;;;;;;;;;;;5006515;28;19972;-58
2023/08/10 09:18:08;;;;;;;;;;;;;;;;;;5006705;28;20031;-57
2023/08/10 09:20:33;;;;;;;;;;;;;;;;;;4994194;28;20000;-58
2023/08/10 09:22:59;;;;;;;;;;;;;;;;;;4999119;28;20004;-57
2023/08/10 09:25:26;;;;;;;;;;;;;;;;;;5005192;28;19929;-58
2023/08/10 09:27:52;;;;;;;;;;;;;;;;;;4988579;28;19947;-58
2023/08/10 09:30:18;;;;;;;;;;;;;;;;;;4997739;28;20383;-57
2023/08/10 09:32:44;;;;;;;;;;;;;;;;;;5005621;28;19925;-58
2023/08/10 09:35:10;;;;;;;;;;;;;;;;;;5006106;28;19932;-57
2023/08/10 09:37:36;;;;;;;;;;;;;;;;;;5005246;28;19925;-58
2023/08/10 09:40:06;;;;;;;;;;;;;;;;;;4996547;28;19936;-57
2023/08/10 09:42:32;;;;;;;;;;;;;;;;;;4977815;28;19926;-57
2023/08/10 09:44:58;;;;;;;;;;;;;;;;;;5004576;28;20457;-58
2023/08/10 09:47:24;;;;;;;;;;;;;;;;;;5005089;28;19925;-58
2023/08/10 09:49:49;;;;;;;;;;;;;;;;;;4997988;28;19926;-58
2023/08/10 09:52:16;;;;;;;;;;;;;;;;;;5005425;28;19979;-58
2023/08/10 09:54:42;;;;;;;;;;;;;;;;;;5005211;28;19921;-58
2023/08/10 09:57:07;;;;;;;;;;;;;;;;;;5004345;28;19955;-58
2023/08/10 09:59:33;;;;;;;;;;;;;;;;;;5000526;28;19930;-58
2023/08/10 10:01:59;;;;;;;;;;;;;;;;;;5004361;28;19932;-57
2023/08/10 10:04:25;;;;;;;;;;;;;;;;;;5006038;28;19926;-58
2023/08/10 10:06:51;;;;;;;;;;;;;;;;;;5005849;28;19964;-58
2023/08/10 10:09:18;;;;;;;;;;;;;;;;;;5001966;28;20514;-58
2023/08/10 10:11:44;;;;;;;;;;;;;;;;;;5000245;28;20371;-58
2023/08/10 10:14:10;;;;;;;;;;;;;;;;;;5005008;28;19926;-58
2023/08/10 10:16:36;;;;;;;;;;;;;;;;;;5005376;28;19949;-58
2023/08/10 10:19:02;;;;;;;;;;;;;;;;;;5004498;28;20450;-58
2023/08/10 10:21:28;;;;;;;;;;;;;;;;;;4994502;28;19937;-58
2023/08/10 10:23:58;;;;;;;;;;;;;;;;;;5005449;28;19926;-57
2023/08/10 10:26:24;;;;;;;;;;;;;;;;;;5003064;28;19925;-58
2023/08/10 10:28:50;;;;;;;;;;;;;;;;;;5004469;28;20295;-57
2023/08/10 10:31:17;;;;;;;;;;;;;;;;;;5002066;28;19922;-57
2023/08/10 10:33:43;;;;;;;;;;;;;;;;;;5004228;28;19932;-58
2023/08/10 10:36:09;;;;;;;;;;;;;;;;;;4998601;28;19929;-57
2023/08/10 10:38:35;;;;;;;;;;;;;;;;;;4991175;28;20614;-58
2023/08/10 10:41:01;;;;;;;;;;;;;;;;;;4993011;28;20559;-57
2023/08/10 10:43:27;;;;;;;;;;;;;;;;;;4989898;28;19929;-57
2023/08/10 10:45:54;;;;;;;;;;;;;;;;;;4984608;28;20238;-57
2023/08/10 10:48:20;;;;;;;;;;;;;;;;;;4984630;28;19930;-57
2023/08/10 10:50:46;;;;;;;;;;;;;;;;;;4982307;28;19926;-58
2023/08/10 10:53:13;;;;;;;;;;;;;;;;;;4995188;28;20310;-57
2023/08/10 10:55:39;;;;;;;;;;;;;;;;;;4997297;28;19930;-57
2023/08/10 10:58:06;;;;;;;;;;;;;;;;;;4996188;28;19937;-57
2023/08/10 11:00:32;;;;;;;;;;;;;;;;;;4995188;28;20055;-57
2023/08/10 11:02:58;;;;;;;;;;;;;;;;;;5002384;28;20024;-57
2023/08/10 11:05:24;;;;;;;;;;;;;;;;;;4995712;28;19929;-57
2023/08/10 11:07:50;;;;;;;;;;;;;;;;;;4998630;28;19950;-56
2023/08/10 11:10:16;;;;;;;;;;;;;;;;;;4988425;28;19953;-57
2023/08/10 11:12:42;;;;;;;;;;;;;;;;;;4992948;28;19921;-57
2023/08/10 11:15:08;;;;;;;;;;;;;;;;;;4993853;28;20426;-57
2023/08/10 11:17:34;;;;;;;;;;;;;;;;;;4998585;28;19930;-58
2023/08/10 11:20:00;;;;;;;;;;;;;;;;;;4994974;28;19926;-57
2023/08/10 11:22:27;;;;;;;;;;;;;;;;;;4986375;28;20520;-57
2023/08/10 11:24:53;;;;;;;;;;;;;;;;;;4994544;28;20030;-58
2023/08/10 11:27:19;;;;;;;;;;;;;;;;;;4972103;28;20299;-57
2023/08/10 11:29:45;;;;;;;;;;;;;;;;;;4995123;28;19930;-57
2023/08/10 11:32:11;;;;;;;;;;;;;;;;;;4993966;28;19937;-59
2023/08/10 11:34:38;;;;;;;;;;;;;;;;;;4998217;28;19929;-61
2023/08/10 11:37:04;;;;;;;;;;;;;;;;;;4991631;28;20417;-61
2023/08/10 11:39:30;;;;;;;;;;;;;;;;;;4976175;28;20299;-62
2023/08/10 11:41:56;;;;;;;;;;;;;;;;;;4994075;28;19968;-62
2023/08/10 11:44:23;;;;;;;;;;;;;;;;;;4998143;28;19984;-62
2023/08/10 11:46:49;;;;;;;;;;;;;;;;;;5002195;28;20468;-64
2023/08/10 11:49:15;;;;;;;;;;;;;;;;;;5002375;28;19936;-62
2023/08/10 11:51:41;;;;;;;;;;;;;;;;;;4996874;28;20005;-60
2023/08/10 11:54:07;;;;;;;;;;;;;;;;;;4988762;28;19929;-60
2023/08/10 11:56:34;;;;;;;;;;;;;;;;;;4988175;28;19930;-60
2023/08/10 11:59:00;;;;;;;;;;;;;;;;;;4989931;28;20031;-61
2023/08/10 12:01:26;;;;;;;;;;;;;;;;;;4994888;28;20032;-61
2023/08/10 12:03:53;;;;;;;;;;;;;;;;;;5001022;28;20399;-60
2023/08/10 12:06:20;;;;;;;;;;;;;;;;;;5002179;28;19932;-60
2023/08/10 12:08:46;;;;;;;;;;;;;;;;;;5002904;28;19932;-61
2023/08/10 12:11:12;;;;;;;;;;;;;;;;;;5008069;28;19934;-61
2023/08/10 12:13:37;;;;;;;;;;;;;;;;;;4997923;28;20410;-59
2023/08/10 12:16:03;;;;;;;;;;;;;;;;;;4999122;28;19936;-61
2023/08/10 12:18:29;;;;;;;;;;;;;;;;;;5003097;28;20687;-61
2023/08/10 12:20:55;;;;;;;;;;;;;;;;;;4993784;28;19921;-61
2023/08/10 12:23:21;;;;;;;;;;;;;;;;;;5004134;28;20051;-60
2023/08/10 12:25:50;;;;;;;;;;;;;;;;;;5007457;28;19992;-61
2023/08/10 12:28:16;;;;;;;;;;;;;;;;;;5008592;28;19925;-61
2023/08/10 12:30:42;;;;;;;;;;;;;;;;;;5006775;28;19926;-60
2023/08/10 12:33:09;;;;;;;;;;;;;;;;;;5005872;28;20519;-61
2023/08/10 12:35:35;;;;;;;;;;;;;;;;;;5007524;28;20314;-61
2023/08/10 12:38:01;;;;;;;;;;;;;;;;;;5007259;28;19929;-61
2023/08/10 12:40:27;;;;;;;;;;;;;;;;;;4995903;28;20005;-61
2023/08/10 12:42:54;;;;;;;;;;;;;;;;;;4994750;28;19929;-61
2023/08/10 12:45:21;;;;;;;;;;;;;;;;;;5006714;28;19937;-61
2023/08/10 12:47:46;;;;;;;;;;;;;;;;;;4995629;28;20370;-61
2023/08/10 12:50:12;;;;;;;;;;;;;;;;;;5001197;28;20367;-62
2023/08/10 12:52:39;;;;;;;;;;;;;;;;;;5009052;28;19926;-60
2023/08/10 12:55:04;;;;;;;;;;;;;;;;;;5008603;28;19929;-60
2023/08/10 12:57:30;;;;;;;;;;;;;;;;;;5008672;28;19925;-60
2023/08/10 12:59:56;;;;;;;;;;;;;;;;;;4969760;28;20387;-60
2023/08/10 13:02:22;;;;;;;;;;;;;;;;;;4995641;28;19936;-60
2023/08/10 13:04:48;;;;;;;;;;;;;;;;;;5007257;28;20593;-60
2023/08/10 13:07:14;;;;;;;;;;;;;;;;;;4995842;28;20413;-61
2023/08/10 13:09:40;;;;;;;;;;;;;;;;;;5009593;28;19925;-60
2023/08/10 13:12:06;;;;;;;;;;;;;;;;;;5008437;28;19933;-61
2023/08/10 13:14:32;;;;;;;;;;;;;;;;;;5002017;28;20287;-61
2023/08/10 13:16:58;;;;;;;;;;;;;;;;;;5005350;28;20012;-59
2023/08/10 13:19:24;;;;;;;;;;;;;;;;;;5005599;28;19997;-61
2023/08/10 13:21:50;;;;;;;;;;;;;;;;;;4995088;28;19977;-61
2023/08/10 13:24:16;;;;;;;;;;;;;;;;;;4998661;28;19932;-61
2023/08/10 13:26:42;;;;;;;;;;;;;;;;;;4995836;28;19925;-60
2023/08/10 13:29:08;;;;;;;;;;;;;;;;;;4990368;28;19926;-61
2023/08/10 13:31:35;;;;;;;;;;;;;;;;;;4986141;28;20655;-60
2023/08/10 13:34:05;;;;;;;;;;;;;;;;;;5005775;28;19928;-60
2023/08/10 13:36:31;;;;;;;;;;;;;;;;;;5005586;28;19926;-60
2023/08/10 13:38:57;;;;;;;;;;;;;;;;;;5005366;28;19925;-60
2023/08/10 13:41:23;;;;;;;;;;;;;;;;;;5003519;28;19929;-60
2023/08/10 13:43:49;;;;;;;;;;;;;;;;;;5005620;28;19926;-60
2023/08/10 13:46:15;;;;;;;;;;;;;;;;;;5006095;28;19929;-61
2023/08/10 13:48:41;;;;;;;;;;;;;;;;;;5004283;28;19972;-60
2023/08/10 13:51:07;;;;;;;;;;;;;;;;;;5005858;28;19925;-60
2023/08/10 13:53:33;;;;;;;;;;;;;;;;;;5005136;28;19929;-61
2023/08/10 13:55:59;;;;;;;;;;;;;;;;;;5005027;28;19933;-61
2023/08/10 13:58:25;;;;;;;;;;;;;;;;;;5004979;28;20016;-61
2023/08/10 14:00:51;;;;;;;;;;;;;;;;;;5005562;28;19925;-61
2023/08/10 14:03:17;;;;;;;;;;;;;;;;;;5004581;28;19980;-61
2023/08/10 14:05:43;;;;;;;;;;;;;;;;;;5004799;28;20376;-63
2023/08/10 14:08:09;;;;;;;;;;;;;;;;;;5004199;28;19925;-60
2023/08/10 14:10:35;;;;;;;;;;;;;;;;;;5004348;28;20350;-60
2023/08/10 14:13:01;;;;;;;;;;;;;;;;;;5004214;28;19925;-61
2023/08/10 14:15:26;;;;;;;;;;;;;;;;;;4975742;28;19926;-61
2023/08/10 14:17:53;;;;;;;;;;;;;;;;;;5004265;28;19929;-62
2023/08/10 14:20:19;;;;;;;;;;;;;;;;;;5005187;28;19925;-62
2023/08/10 14:22:44;;;;;;;;;;;;;;;;;;5004043;28;19925;-61
2023/08/10 14:25:10;;;;;;;;;;;;;;;;;;5003099;28;19933;-61
2023/08/10 14:27:36;;;;;;;;;;;;;;;;;;5003882;28;19921;-62
2023/08/10 14:30:02;;;;;;;;;;;;;;;;;;5003240;28;19936;-62
2023/08/10 14:32:28;;;;;;;;;;;;;;;;;;5002561;28;19932;-61
2023/08/10 14:34:54;;;;;;;;;;;;;;;;;;5004663;28;19925;-62
2023/08/10 14:37:20;;;;;;;;;;;;;;;;;;5004460;28;19926;-61
2023/08/10 14:39:46;;;;;;;;;;;;;;;;;;5003930;28;19921;-62
2023/08/10 14:42:12;;;;;;;;;;;;;;;;;;5004496;28;19926;-61
2023/08/10 14:44:38;;;;;;;;;;;;;;;;;;5003973;28;20433;-61
2023/08/10 14:47:04;;;;;;;;;;;;;;;;;;5002917;28;19928;-62
2023/08/10 14:49:31;;;;;;;;;;;;;;;;;;4968659;28;20051;-61
2023/08/10 14:51:57;;;;;;;;;;;;;;;;;;5003318;28;19921;-61
2023/08/10 14:54:24;;;;;;;;;;;;;;;;;;5002121;28;19938;-61
2023/08/10 14:56:51;;;;;;;;;;;;;;;;;;5002229;28;19925;-61
2023/08/10 14:59:17;;;;;;;;;;;;;;;;;;5003461;28;19992;-61
2023/08/10 15:01:43;;;;;;;;;;;;;;;;;;5002731;28;19929;-62
2023/08/10 15:04:10;;;;;;;;;;;;;;;;;;5003200;28;20015;-61
2023/08/10 15:06:37;;;;;;;;;;;;;;;;;;5001895;28;20056;-61
2023/08/10 15:09:03;;;;;;;;;;;;;;;;;;5003815;28;19933;-61
2023/08/10 15:11:29;;;;;;;;;;;;;;;;;;5003273;28;19987;-61
2023/08/10 15:13:55;;;;;;;;;;;;;;;;;;5004205;28;19935;-61
2023/08/10 15:16:21;;;;;;;;;;;;;;;;;;5004050;28;19925;-61
2023/08/10 15:18:47;;;;;;;;;;;;;;;;;;5003213;28;19925;-61
2023/08/10 15:21:13;;;;;;;;;;;;;;;;;;5003706;28;20326;-62
2023/08/10 15:23:39;;;;;;;;;;;;;;;;;;5004054;28;19925;-61
2023/08/10 15:26:05;;;;;;;;;;;;;;;;;;5002415;28;20327;-61
2023/08/10 15:28:32;;;;;;;;;;;;;;;;;;4999342;28;19945;-61
2023/08/10 15:30:58;;;;;;;;;;;;;;;;;;4984644;28;19976;-61
2023/08/10 15:33:24;;;;;;;;;;;;;;;;;;4993250;28;19926;-62
2023/08/10 15:35:50;;;;;;;;;;;;;;;;;;4992535;28;19925;-62
2023/08/10 15:38:16;;;;;;;;;;;;;;;;;;4984018;28;19980;-61
2023/08/10 15:40:42;;;;;;;;;;;;;;;;;;4981557;28;20672;-62
2023/08/10 15:43:08;;;;;;;;;;;;;;;;;;4999952;28;20725;-62
2023/08/10 15:45:34;;;;;;;;;;;;;;;;;;4995471;28;19996;-62
2023/08/10 15:48:00;;;;;;;;;;;;;;;;;;4989389;28;19921;-62
2023/08/10 15:50:27;;;;;;;;;;;;;;;;;;4985618;28;20411;-61
2023/08/10 15:52:53;;;;;;;;;;;;;;;;;;4989524;28;19921;-61
2023/08/10 15:55:19;;;;;;;;;;;;;;;;;;4990002;28;20371;-60
2023/08/10 15:57:45;;;;;;;;;;;;;;;;;;5002283;28;19929;-60
2023/08/10 16:00:12;;;;;;;;;;;;;;;;;;5003295;28;20414;-61
2023/08/10 16:02:39;;;;;;;;;;;;;;;;;;5001126;28;20603;-61
2023/08/10 16:05:05;;;;;;;;;;;;;;;;;;4998946;28;19925;-60
2023/08/10 16:07:31;;;;;;;;;;;;;;;;;;5000806;28;19925;-61
2023/08/10 16:09:57;;;;;;;;;;;;;;;;;;5002304;28;19988;-61
2023/08/10 16:12:23;;;;;;;;;;;;;;;;;;4995685;28;19937;-62
2023/08/10 16:14:49;;;;;;;;;;;;;;;;;;4984224;28;20440;-61
2023/08/10 16:17:15;;;;;;;;;;;;;;;;;;5000352;28;20125;-62
2023/08/10 16:19:41;;;;;;;;;;;;;;;;;;4990499;28;20087;-61
2023/08/10 16:22:06;;;;;;;;;;;;;;;;;;4999468;28;19925;-61
2023/08/10 16:24:32;;;;;;;;;;;;;;;;;;4998594;28;20142;-61
2023/08/10 16:26:58;;;;;;;;;;;;;;;;;;5003338;28;19987;-61
2023/08/10 16:29:24;;;;;;;;;;;;;;;;;;5003631;28;19976;-62
2023/08/10 16:31:50;;;;;;;;;;;;;;;;;;4995162;28;19926;-62
2023/08/10 16:34:16;;;;;;;;;;;;;;;;;;4998698;28;20019;-62
2023/08/10 16:36:42;;;;;;;;;;;;;;;;;;5002546;28;20050;-61